sensor_id;sensor_type;location;lat;lon;timestamp;P1;durP1;ratioP1;P2;durP2;ratioP2
52650;SDS011;38537;47.226;39.702;2023-08-01T00:02:53;14.07;;;5.88;;
52650;SDS011;38537;47.226;39.702;2023-08-01T00:05:21;13.82;;;5.78;;
52650;SDS011;38537;47.226;39.702;2023-08-01T00:07:48;12.70;;;5.97;;
52650;SDS011;38537;47.226;39.702;2023-08-01T00:10:16;14.30;;;5.75;;
52650;SDS011;38537;47.226;39.702;2023-08-01T00:12:45;14.07;;;5.75;;
52650;SDS011;38537;47.226;39.702;2023-08-01T00:15:12;13.35;;;6.00;;
52650;SDS011;38537;47.226;39.702;2023-08-01T00:17:41;13.13;;;5.68;;
52650;SDS011;38537;47.226;39.702;2023-08-01T00:20:08;11.20;;;5.90;;
52650;SDS011;38537;47.226;39.702;2023-08-01T00:22:36;15.85;;;5.70;;
52650;SDS011;38537;47.226;39.702;2023-08-01T00:25:03;7.38;;;5.43;;
52650;SDS011;38537;47.226;39.702;2023-08-01T00:27:31;12.32;;;6.15;;
52650;SDS011;38537;47.226;39.702;2023-08-01T00:30:07;11.73;;;6.07;;
52650;SDS011;38537;47.226;39.702;2023-08-01T00:32:35;12.40;;;6.38;;
52650;SDS011;38537;47.226;39.702;2023-08-01T00:35:03;14.95;;;6.43;;
52650;SDS011;38537;47.226;39.702;2023-08-01T00:37:32;12.02;;;6.07;;
52650;SDS011;38537;47.226;39.702;2023-08-01T00:40:00;14.18;;;5.65;;
52650;SDS011;38537;47.226;39.702;2023-08-01T00:42:29;18.17;;;6.13;;
52650;SDS011;38537;47.226;39.702;2023-08-01T00:44:56;14.57;;;6.03;;
52650;SDS011;38537;47.226;39.702;2023-08-01T00:47:23;11.05;;;5.95;;
52650;SDS011;38537;47.226;39.702;2023-08-01T00:49:51;12.45;;;6.10;;
52650;SDS011;38537;47.226;39.702;2023-08-01T00:52:18;14.23;;;6.30;;
52650;SDS011;38537;47.226;39.702;2023-08-01T00:54:46;12.65;;;6.70;;
52650;SDS011;38537;47.226;39.702;2023-08-01T00:57:13;11.20;;;5.78;;
52650;SDS011;38537;47.226;39.702;2023-08-01T00:59:41;9.68;;;5.97;;
52650;SDS011;38537;47.226;39.702;2023-08-01T01:02:08;11.68;;;5.80;;
52650;SDS011;38537;47.226;39.702;2023-08-01T01:04:36;12.82;;;6.78;;
52650;SDS011;38537;47.226;39.702;2023-08-01T01:07:05;16.23;;;6.50;;
52650;SDS011;38537;47.226;39.702;2023-08-01T01:09:33;13.60;;;6.13;;
52650;SDS011;38537;47.226;39.702;2023-08-01T01:12:01;16.10;;;6.45;;
52650;SDS011;38537;47.226;39.702;2023-08-01T01:14:28;11.77;;;5.97;;
52650;SDS011;38537;47.226;39.702;2023-08-01T01:16:56;14.13;;;5.80;;
52650;SDS011;38537;47.226;39.702;2023-08-01T01:19:23;11.77;;;5.75;;
52650;SDS011;38537;47.226;39.702;2023-08-01T01:21:51;11.13;;;6.30;;
52650;SDS011;38537;47.226;39.702;2023-08-01T01:24:37;14.48;;;6.45;;
52650;SDS011;38537;47.226;39.702;2023-08-01T01:27:08;13.52;;;6.00;;
52650;SDS011;38537;47.226;39.702;2023-08-01T01:29:36;13.18;;;5.75;;
52650;SDS011;38537;47.226;39.702;2023-08-01T01:32:04;9.85;;;5.75;;
52650;SDS011;38537;47.226;39.702;2023-08-01T01:34:33;12.13;;;6.00;;
52650;SDS011;38537;47.226;39.702;2023-08-01T01:37:01;12.55;;;6.13;;
52650;SDS011;38537;47.226;39.702;2023-08-01T01:39:28;11.38;;;5.63;;
52650;SDS011;38537;47.226;39.702;2023-08-01T01:41:55;17.10;;;6.13;;
52650;SDS011;38537;47.226;39.702;2023-08-01T01:44:23;12.52;;;6.07;;
52650;SDS011;38537;47.226;39.702;2023-08-01T01:46:50;10.75;;;5.70;;
52650;SDS011;38537;47.226;39.702;2023-08-01T01:49:17;13.75;;;6.40;;
52650;SDS011;38537;47.226;39.702;2023-08-01T01:51:45;14.57;;;6.28;;
52650;SDS011;38537;47.226;39.702;2023-08-01T01:54:12;15.18;;;6.00;;
52650;SDS011;38537;47.226;39.702;2023-08-01T01:56:40;10.35;;;5.97;;
52650;SDS011;38537;47.226;39.702;2023-08-01T01:59:07;8.55;;;6.10;;
52650;SDS011;38537;47.226;39.702;2023-08-01T02:01:35;11.25;;;5.80;;
52650;SDS011;38537;47.226;39.702;2023-08-01T02:04:02;11.35;;;5.78;;
52650;SDS011;38537;47.226;39.702;2023-08-01T02:06:29;16.40;;;6.22;;
52650;SDS011;38537;47.226;39.702;2023-08-01T02:08:58;13.82;;;5.93;;
52650;SDS011;38537;47.226;39.702;2023-08-01T02:11:28;10.75;;;5.68;;
52650;SDS011;38537;47.226;39.702;2023-08-01T02:13:57;9.88;;;6.20;;
52650;SDS011;38537;47.226;39.702;2023-08-01T02:16:24;9.27;;;5.90;;
52650;SDS011;38537;47.226;39.702;2023-08-01T02:18:52;10.40;;;6.05;;
52650;SDS011;38537;47.226;39.702;2023-08-01T02:21:19;12.13;;;5.95;;
52650;SDS011;38537;47.226;39.702;2023-08-01T02:23:46;12.45;;;5.60;;
52650;SDS011;38537;47.226;39.702;2023-08-01T02:26:14;11.45;;;5.43;;
52650;SDS011;38537;47.226;39.702;2023-08-01T02:28:41;12.30;;;5.50;;
52650;SDS011;38537;47.226;39.702;2023-08-01T02:31:09;11.38;;;5.70;;
52650;SDS011;38537;47.226;39.702;2023-08-01T02:33:36;10.52;;;5.95;;
52650;SDS011;38537;47.226;39.702;2023-08-01T02:36:03;10.95;;;5.43;;
52650;SDS011;38537;47.226;39.702;2023-08-01T02:38:31;13.68;;;5.60;;
52650;SDS011;38537;47.226;39.702;2023-08-01T02:40:58;14.20;;;5.50;;
52650;SDS011;38537;47.226;39.702;2023-08-01T02:43:27;12.48;;;5.55;;
52650;SDS011;38537;47.226;39.702;2023-08-01T02:45:55;12.07;;;5.00;;
52650;SDS011;38537;47.226;39.702;2023-08-01T02:48:25;8.85;;;5.43;;
52650;SDS011;38537;47.226;39.702;2023-08-01T02:50:52;9.60;;;5.20;;
52650;SDS011;38537;47.226;39.702;2023-08-01T02:53:20;12.75;;;5.32;;
52650;SDS011;38537;47.226;39.702;2023-08-01T02:55:50;9.45;;;4.97;;
52650;SDS011;38537;47.226;39.702;2023-08-01T02:58:17;13.18;;;5.57;;
52650;SDS011;38537;47.226;39.702;2023-08-01T03:00:47;10.73;;;5.10;;
52650;SDS011;38537;47.226;39.702;2023-08-01T03:03:25;8.30;;;5.30;;
52650;SDS011;38537;47.226;39.702;2023-08-01T03:06:10;11.38;;;5.00;;
52650;SDS011;38537;47.226;39.702;2023-08-01T03:08:37;8.80;;;4.82;;
52650;SDS011;38537;47.226;39.702;2023-08-01T03:11:05;10.65;;;5.18;;
52650;SDS011;38537;47.226;39.702;2023-08-01T03:13:32;12.43;;;5.22;;
52650;SDS011;38537;47.226;39.702;2023-08-01T03:16:00;11.52;;;5.20;;
52650;SDS011;38537;47.226;39.702;2023-08-01T03:18:27;9.55;;;5.15;;
52650;SDS011;38537;47.226;39.702;2023-08-01T03:20:55;7.90;;;4.90;;
52650;SDS011;38537;47.226;39.702;2023-08-01T03:23:23;6.82;;;4.82;;
52650;SDS011;38537;47.226;39.702;2023-08-01T03:25:54;8.73;;;4.95;;
52650;SDS011;38537;47.226;39.702;2023-08-01T03:28:21;12.68;;;5.00;;
52650;SDS011;38537;47.226;39.702;2023-08-01T03:30:49;7.57;;;4.78;;
52650;SDS011;38537;47.226;39.702;2023-08-01T03:33:17;7.60;;;4.75;;
52650;SDS011;38537;47.226;39.702;2023-08-01T03:35:44;9.80;;;4.30;;
52650;SDS011;38537;47.226;39.702;2023-08-01T03:38:12;8.57;;;4.65;;
52650;SDS011;38537;47.226;39.702;2023-08-01T03:40:40;7.78;;;4.70;;
52650;SDS011;38537;47.226;39.702;2023-08-01T03:43:08;5.65;;;4.10;;
52650;SDS011;38537;47.226;39.702;2023-08-01T03:45:36;9.35;;;4.20;;
52650;SDS011;38537;47.226;39.702;2023-08-01T03:48:04;6.65;;;4.20;;
52650;SDS011;38537;47.226;39.702;2023-08-01T03:50:32;8.18;;;4.20;;
52650;SDS011;38537;47.226;39.702;2023-08-01T03:52:59;6.00;;;4.10;;
52650;SDS011;38537;47.226;39.702;2023-08-01T03:55:26;5.28;;;4.10;;
52650;SDS011;38537;47.226;39.702;2023-08-01T03:57:54;5.45;;;3.90;;
52650;SDS011;38537;47.226;39.702;2023-08-01T04:00:22;8.57;;;4.18;;
52650;SDS011;38537;47.226;39.702;2023-08-01T04:02:50;5.15;;;4.10;;
52650;SDS011;38537;47.226;39.702;2023-08-01T04:05:18;12.80;;;4.22;;
52650;SDS011;38537;47.226;39.702;2023-08-01T04:07:45;8.57;;;4.35;;
52650;SDS011;38537;47.226;39.702;2023-08-01T04:10:13;7.35;;;3.70;;
52650;SDS011;38537;47.226;39.702;2023-08-01T04:12:40;4.93;;;4.05;;
52650;SDS011;38537;47.226;39.702;2023-08-01T04:15:09;5.88;;;4.03;;
52650;SDS011;38537;47.226;39.702;2023-08-01T04:17:36;6.85;;;4.38;;
52650;SDS011;38537;47.226;39.702;2023-08-01T04:20:04;10.13;;;4.32;;
52650;SDS011;38537;47.226;39.702;2023-08-01T04:22:32;8.40;;;4.38;;
52650;SDS011;38537;47.226;39.702;2023-08-01T04:25:01;5.47;;;3.97;;
52650;SDS011;38537;47.226;39.702;2023-08-01T04:27:33;11.20;;;3.90;;
52650;SDS011;38537;47.226;39.702;2023-08-01T04:30:01;10.80;;;4.25;;
52650;SDS011;38537;47.226;39.702;2023-08-01T04:32:35;10.60;;;4.13;;
52650;SDS011;38537;47.226;39.702;2023-08-01T04:35:03;11.95;;;4.55;;
52650;SDS011;38537;47.226;39.702;2023-08-01T04:37:33;7.43;;;4.55;;
52650;SDS011;38537;47.226;39.702;2023-08-01T04:40:03;6.85;;;3.78;;
52650;SDS011;38537;47.226;39.702;2023-08-01T04:42:33;9.85;;;4.40;;
52650;SDS011;38537;47.226;39.702;2023-08-01T04:45:05;7.53;;;4.05;;
52650;SDS011;38537;47.226;39.702;2023-08-01T04:47:33;9.95;;;4.30;;
52650;SDS011;38537;47.226;39.702;2023-08-01T04:50:02;5.90;;;3.60;;
52650;SDS011;38537;47.226;39.702;2023-08-01T04:52:30;5.47;;;4.00;;
52650;SDS011;38537;47.226;39.702;2023-08-01T04:54:58;7.95;;;4.07;;
52650;SDS011;38537;47.226;39.702;2023-08-01T04:57:25;7.97;;;4.20;;
52650;SDS011;38537;47.226;39.702;2023-08-01T04:59:53;5.97;;;3.70;;
52650;SDS011;38537;47.226;39.702;2023-08-01T05:02:20;10.07;;;4.53;;
52650;SDS011;38537;47.226;39.702;2023-08-01T05:04:49;7.43;;;4.40;;
52650;SDS011;38537;47.226;39.702;2023-08-01T05:07:20;5.28;;;3.90;;
52650;SDS011;38537;47.226;39.702;2023-08-01T05:09:48;10.00;;;4.15;;
52650;SDS011;38537;47.226;39.702;2023-08-01T05:12:17;9.95;;;4.25;;
52650;SDS011;38537;47.226;39.702;2023-08-01T05:14:44;9.50;;;4.47;;
52650;SDS011;38537;47.226;39.702;2023-08-01T05:17:12;9.55;;;4.30;;
52650;SDS011;38537;47.226;39.702;2023-08-01T05:19:40;6.40;;;4.03;;
52650;SDS011;38537;47.226;39.702;2023-08-01T05:22:11;11.82;;;4.43;;
52650;SDS011;38537;47.226;39.702;2023-08-01T05:24:38;6.22;;;4.28;;
52650;SDS011;38537;47.226;39.702;2023-08-01T05:27:06;8.65;;;4.15;;
52650;SDS011;38537;47.226;39.702;2023-08-01T05:29:35;6.80;;;3.90;;
52650;SDS011;38537;47.226;39.702;2023-08-01T05:32:06;5.47;;;3.78;;
52650;SDS011;38537;47.226;39.702;2023-08-01T05:34:34;4.65;;;3.42;;
52650;SDS011;38537;47.226;39.702;2023-08-01T05:37:01;7.15;;;4.15;;
52650;SDS011;38537;47.226;39.702;2023-08-01T05:39:29;8.75;;;3.97;;
52650;SDS011;38537;47.226;39.702;2023-08-01T05:41:56;5.18;;;3.95;;
52650;SDS011;38537;47.226;39.702;2023-08-01T05:44:24;4.90;;;3.75;;
52650;SDS011;38537;47.226;39.702;2023-08-01T05:46:51;8.93;;;4.18;;
52650;SDS011;38537;47.226;39.702;2023-08-01T05:49:18;5.88;;;4.20;;
52650;SDS011;38537;47.226;39.702;2023-08-01T05:51:46;6.72;;;3.95;;
52650;SDS011;38537;47.226;39.702;2023-08-01T05:54:13;5.55;;;3.72;;
52650;SDS011;38537;47.226;39.702;2023-08-01T05:56:41;7.07;;;4.13;;
52650;SDS011;38537;47.226;39.702;2023-08-01T05:59:08;5.55;;;3.78;;
52650;SDS011;38537;47.226;39.702;2023-08-01T06:01:36;6.93;;;3.88;;
52650;SDS011;38537;47.226;39.702;2023-08-01T06:04:06;6.78;;;4.00;;
52650;SDS011;38537;47.226;39.702;2023-08-01T06:06:34;9.05;;;3.63;;
52650;SDS011;38537;47.226;39.702;2023-08-01T06:09:02;6.63;;;3.85;;
52650;SDS011;38537;47.226;39.702;2023-08-01T06:11:29;6.35;;;3.78;;
52650;SDS011;38537;47.226;39.702;2023-08-01T06:13:56;5.63;;;3.92;;
52650;SDS011;38537;47.226;39.702;2023-08-01T06:16:24;8.25;;;4.25;;
52650;SDS011;38537;47.226;39.702;2023-08-01T06:18:54;8.18;;;4.10;;
52650;SDS011;38537;47.226;39.702;2023-08-01T06:21:23;8.45;;;3.80;;
52650;SDS011;38537;47.226;39.702;2023-08-01T06:23:50;7.05;;;3.80;;
52650;SDS011;38537;47.226;39.702;2023-08-01T06:26:18;5.60;;;3.40;;
52650;SDS011;38537;47.226;39.702;2023-08-01T06:28:46;5.95;;;3.83;;
52650;SDS011;38537;47.226;39.702;2023-08-01T06:31:13;4.47;;;3.40;;
52650;SDS011;38537;47.226;39.702;2023-08-01T06:33:41;6.38;;;3.53;;
52650;SDS011;38537;47.226;39.702;2023-08-01T06:36:08;7.15;;;3.70;;
52650;SDS011;38537;47.226;39.702;2023-08-01T06:38:36;9.98;;;3.60;;
52650;SDS011;38537;47.226;39.702;2023-08-01T06:41:03;5.18;;;3.50;;
52650;SDS011;38537;47.226;39.702;2023-08-01T06:43:34;4.03;;;3.55;;
52650;SDS011;38537;47.226;39.702;2023-08-01T06:46:01;9.45;;;4.28;;
52650;SDS011;38537;47.226;39.702;2023-08-01T06:48:28;6.18;;;3.60;;
52650;SDS011;38537;47.226;39.702;2023-08-01T06:50:57;5.35;;;3.70;;
52650;SDS011;38537;47.226;39.702;2023-08-01T06:53:24;10.25;;;4.10;;
52650;SDS011;38537;47.226;39.702;2023-08-01T06:55:52;6.40;;;3.70;;
52650;SDS011;38537;47.226;39.702;2023-08-01T06:58:20;6.25;;;3.53;;
52650;SDS011;38537;47.226;39.702;2023-08-01T07:00:47;5.82;;;3.95;;
52650;SDS011;38537;47.226;39.702;2023-08-01T07:03:14;7.07;;;3.58;;
52650;SDS011;38537;47.226;39.702;2023-08-01T07:05:42;6.38;;;3.50;;
52650;SDS011;38537;47.226;39.702;2023-08-01T07:08:09;5.82;;;3.80;;
52650;SDS011;38537;47.226;39.702;2023-08-01T07:10:36;10.25;;;3.72;;
52650;SDS011;38537;47.226;39.702;2023-08-01T07:13:04;8.57;;;3.90;;
52650;SDS011;38537;47.226;39.702;2023-08-01T07:15:34;10.23;;;3.83;;
52650;SDS011;38537;47.226;39.702;2023-08-01T07:18:01;7.93;;;3.65;;
52650;SDS011;38537;47.226;39.702;2023-08-01T07:20:29;6.15;;;3.40;;
52650;SDS011;38537;47.226;39.702;2023-08-01T07:22:57;4.65;;;3.25;;
52650;SDS011;38537;47.226;39.702;2023-08-01T07:25:24;6.45;;;3.22;;
52650;SDS011;38537;47.226;39.702;2023-08-01T07:27:52;6.22;;;3.40;;
52650;SDS011;38537;47.226;39.702;2023-08-01T07:30:19;4.95;;;3.30;;
52650;SDS011;38537;47.226;39.702;2023-08-01T07:32:46;5.72;;;3.00;;
52650;SDS011;38537;47.226;39.702;2023-08-01T07:35:14;9.70;;;3.63;;
52650;SDS011;38537;47.226;39.702;2023-08-01T07:37:42;15.32;;;4.18;;
52650;SDS011;38537;47.226;39.702;2023-08-01T07:40:09;9.63;;;4.18;;
52650;SDS011;38537;47.226;39.702;2023-08-01T07:42:37;7.35;;;3.45;;
52650;SDS011;38537;47.226;39.702;2023-08-01T07:45:04;10.52;;;3.50;;
52650;SDS011;38537;47.226;39.702;2023-08-01T07:47:33;6.55;;;3.28;;
52650;SDS011;38537;47.226;39.702;2023-08-01T07:50:00;6.32;;;3.63;;
52650;SDS011;38537;47.226;39.702;2023-08-01T07:52:30;9.40;;;3.70;;
52650;SDS011;38537;47.226;39.702;2023-08-01T07:54:58;5.75;;;3.55;;
52650;SDS011;38537;47.226;39.702;2023-08-01T07:57:26;6.25;;;3.47;;
52650;SDS011;38537;47.226;39.702;2023-08-01T07:59:53;8.20;;;3.70;;
52650;SDS011;38537;47.226;39.702;2023-08-01T08:02:20;8.18;;;3.58;;
52650;SDS011;38537;47.226;39.702;2023-08-01T08:04:48;7.85;;;3.63;;
52650;SDS011;38537;47.226;39.702;2023-08-01T08:07:15;10.18;;;3.65;;
52650;SDS011;38537;47.226;39.702;2023-08-01T08:09:42;9.20;;;3.25;;
52650;SDS011;38537;47.226;39.702;2023-08-01T08:12:10;7.47;;;3.53;;
52650;SDS011;38537;47.226;39.702;2023-08-01T08:14:39;6.20;;;3.88;;
52650;SDS011;38537;47.226;39.702;2023-08-01T08:17:18;10.35;;;3.63;;
52650;SDS011;38537;47.226;39.702;2023-08-01T08:19:45;8.05;;;4.05;;
52650;SDS011;38537;47.226;39.702;2023-08-01T08:22:13;7.70;;;3.80;;
52650;SDS011;38537;47.226;39.702;2023-08-01T08:24:40;9.90;;;3.90;;
52650;SDS011;38537;47.226;39.702;2023-08-01T08:27:08;7.88;;;3.63;;
52650;SDS011;38537;47.226;39.702;2023-08-01T08:29:35;12.77;;;3.80;;
52650;SDS011;38537;47.226;39.702;2023-08-01T08:32:03;7.47;;;3.50;;
52650;SDS011;38537;47.226;39.702;2023-08-01T08:34:30;9.80;;;3.90;;
52650;SDS011;38537;47.226;39.702;2023-08-01T08:36:57;10.18;;;3.60;;
52650;SDS011;38537;47.226;39.702;2023-08-01T08:39:25;10.82;;;4.03;;
52650;SDS011;38537;47.226;39.702;2023-08-01T08:41:52;6.60;;;3.35;;
52650;SDS011;38537;47.226;39.702;2023-08-01T08:44:20;8.32;;;3.72;;
52650;SDS011;38537;47.226;39.702;2023-08-01T08:46:51;6.72;;;3.67;;
52650;SDS011;38537;47.226;39.702;2023-08-01T08:49:20;8.25;;;3.35;;
52650;SDS011;38537;47.226;39.702;2023-08-01T08:51:48;6.68;;;3.50;;
52650;SDS011;38537;47.226;39.702;2023-08-01T08:54:16;9.15;;;3.58;;
52650;SDS011;38537;47.226;39.702;2023-08-01T08:56:46;8.07;;;3.22;;
52650;SDS011;38537;47.226;39.702;2023-08-01T08:59:13;5.05;;;3.45;;
52650;SDS011;38537;47.226;39.702;2023-08-01T09:01:41;6.28;;;3.45;;
52650;SDS011;38537;47.226;39.702;2023-08-01T09:04:09;6.05;;;3.47;;
52650;SDS011;38537;47.226;39.702;2023-08-01T09:06:46;6.45;;;3.38;;
52650;SDS011;38537;47.226;39.702;2023-08-01T09:09:18;7.63;;;3.38;;
52650;SDS011;38537;47.226;39.702;2023-08-01T09:11:46;5.13;;;3.13;;
52650;SDS011;38537;47.226;39.702;2023-08-01T09:14:17;8.65;;;3.35;;
52650;SDS011;38537;47.226;39.702;2023-08-01T09:16:46;6.90;;;3.10;;
52650;SDS011;38537;47.226;39.702;2023-08-01T09:19:18;7.30;;;3.53;;
52650;SDS011;38537;47.226;39.702;2023-08-01T09:21:47;5.63;;;3.05;;
52650;SDS011;38537;47.226;39.702;2023-08-01T09:24:18;7.90;;;3.08;;
52650;SDS011;38537;47.226;39.702;2023-08-01T09:26:47;7.35;;;3.50;;
52650;SDS011;38537;47.226;39.702;2023-08-01T09:29:16;7.05;;;3.63;;
52650;SDS011;38537;47.226;39.702;2023-08-01T09:31:44;6.93;;;3.40;;
52650;SDS011;38537;47.226;39.702;2023-08-01T09:34:19;6.95;;;3.00;;
52650;SDS011;38537;47.226;39.702;2023-08-01T09:36:49;3.53;;;2.80;;
52650;SDS011;38537;47.226;39.702;2023-08-01T09:39:17;5.80;;;3.10;;
52650;SDS011;38537;47.226;39.702;2023-08-01T09:41:54;8.10;;;3.45;;
52650;SDS011;38537;47.226;39.702;2023-08-01T09:44:29;5.70;;;3.08;;
52650;SDS011;38537;47.226;39.702;2023-08-01T09:47:00;4.07;;;3.20;;
52650;SDS011;38537;47.226;39.702;2023-08-01T09:49:30;7.10;;;3.05;;
52650;SDS011;38537;47.226;39.702;2023-08-01T09:51:58;10.63;;;3.15;;
52650;SDS011;38537;47.226;39.702;2023-08-01T09:54:26;6.70;;;3.10;;
52650;SDS011;38537;47.226;39.702;2023-08-01T09:56:54;4.05;;;2.80;;
52650;SDS011;38537;47.226;39.702;2023-08-01T09:59:23;5.60;;;2.92;;
52650;SDS011;38537;47.226;39.702;2023-08-01T10:01:53;8.38;;;2.92;;
52650;SDS011;38537;47.226;39.702;2023-08-01T10:04:26;6.65;;;3.40;;
52650;SDS011;38537;47.226;39.702;2023-08-01T10:07:05;9.55;;;3.88;;
52650;SDS011;38537;47.226;39.702;2023-08-01T10:09:35;6.45;;;3.60;;
52650;SDS011;38537;47.226;39.702;2023-08-01T10:12:04;4.47;;;3.20;;
52650;SDS011;38537;47.226;39.702;2023-08-01T10:14:32;4.53;;;3.20;;
52650;SDS011;38537;47.226;39.702;2023-08-01T10:17:00;5.03;;;3.55;;
52650;SDS011;38537;47.226;39.702;2023-08-01T10:19:30;6.25;;;3.60;;
52650;SDS011;38537;47.226;39.702;2023-08-01T10:21:59;5.47;;;3.50;;
52650;SDS011;38537;47.226;39.702;2023-08-01T10:24:28;4.75;;;3.17;;
52650;SDS011;38537;47.226;39.702;2023-08-01T10:26:56;6.10;;;3.10;;
52650;SDS011;38537;47.226;39.702;2023-08-01T10:29:36;8.52;;;3.10;;
52650;SDS011;38537;47.226;39.702;2023-08-01T10:32:05;4.90;;;3.10;;
52650;SDS011;38537;47.226;39.702;2023-08-01T10:34:34;3.60;;;3.30;;
52650;SDS011;38537;47.226;39.702;2023-08-01T10:37:03;9.88;;;3.20;;
52650;SDS011;38537;47.226;39.702;2023-08-01T10:39:31;4.30;;;3.22;;
52650;SDS011;38537;47.226;39.702;2023-08-01T10:42:02;4.93;;;3.10;;
52650;SDS011;38537;47.226;39.702;2023-08-01T10:47:01;7.75;;;3.20;;
52650;SDS011;38537;47.226;39.702;2023-08-01T10:50:13;5.97;;;3.70;;
52650;SDS011;38537;47.226;39.702;2023-08-01T10:52:25;6.32;;;3.55;;
52650;SDS011;38537;47.226;39.702;2023-08-01T10:55:00;6.40;;;3.35;;
52650;SDS011;38537;47.226;39.702;2023-08-01T10:57:34;7.63;;;3.65;;
52650;SDS011;38537;47.226;39.702;2023-08-01T11:00:03;5.68;;;3.08;;
52650;SDS011;38537;47.226;39.702;2023-08-01T11:02:36;5.38;;;3.17;;
52650;SDS011;38537;47.226;39.702;2023-08-01T11:05:05;5.32;;;3.38;;
52650;SDS011;38537;47.226;39.702;2023-08-01T11:07:34;4.85;;;3.53;;
52650;SDS011;38537;47.226;39.702;2023-08-01T11:10:11;7.10;;;3.47;;
52650;SDS011;38537;47.226;39.702;2023-08-01T11:12:40;5.63;;;3.47;;
52650;SDS011;38537;47.226;39.702;2023-08-01T11:15:10;5.47;;;3.33;;
52650;SDS011;38537;47.226;39.702;2023-08-01T11:17:39;7.18;;;3.40;;
52650;SDS011;38537;47.226;39.702;2023-08-01T11:20:09;4.80;;;3.50;;
52650;SDS011;38537;47.226;39.702;2023-08-01T11:22:57;3.58;;;2.75;;
52650;SDS011;38537;47.226;39.702;2023-08-01T11:25:46;4.57;;;2.90;;
52650;SDS011;38537;47.226;39.702;2023-08-01T11:28:17;4.50;;;3.20;;
52650;SDS011;38537;47.226;39.702;2023-08-01T11:30:44;4.78;;;3.25;;
52650;SDS011;38537;47.226;39.702;2023-08-01T11:33:23;4.68;;;3.50;;
52650;SDS011;38537;47.226;39.702;2023-08-01T11:35:51;5.22;;;3.33;;
52650;SDS011;38537;47.226;39.702;2023-08-01T11:38:20;6.47;;;3.20;;
52650;SDS011;38537;47.226;39.702;2023-08-01T11:40:50;3.92;;;3.17;;
52650;SDS011;38537;47.226;39.702;2023-08-01T11:43:18;3.85;;;3.00;;
52650;SDS011;38537;47.226;39.702;2023-08-01T11:46:03;6.05;;;3.20;;
52650;SDS011;38537;47.226;39.702;2023-08-01T11:48:31;4.57;;;3.38;;
52650;SDS011;38537;47.226;39.702;2023-08-01T11:50:59;3.95;;;3.20;;
52650;SDS011;38537;47.226;39.702;2023-08-01T11:53:28;7.78;;;3.50;;
52650;SDS011;38537;47.226;39.702;2023-08-01T11:55:56;4.00;;;3.20;;
52650;SDS011;38537;47.226;39.702;2023-08-01T11:58:31;3.80;;;3.30;;
52650;SDS011;38537;47.226;39.702;2023-08-01T12:01:01;4.93;;;3.28;;
52650;SDS011;38537;47.226;39.702;2023-08-01T12:03:41;3.95;;;3.10;;
52650;SDS011;38537;47.226;39.702;2023-08-01T12:06:13;16.13;;;3.67;;
52650;SDS011;38537;47.226;39.702;2023-08-01T12:08:41;5.55;;;3.30;;
52650;SDS011;38537;47.226;39.702;2023-08-01T12:11:24;3.80;;;3.40;;
52650;SDS011;38537;47.226;39.702;2023-08-01T12:14:09;5.75;;;3.40;;
52650;SDS011;38537;47.226;39.702;2023-08-01T12:16:38;4.80;;;3.13;;
52650;SDS011;38537;47.226;39.702;2023-08-01T12:19:07;4.13;;;3.33;;
52650;SDS011;38537;47.226;39.702;2023-08-01T12:21:36;4.60;;;3.20;;
52650;SDS011;38537;47.226;39.702;2023-08-01T12:24:04;5.45;;;3.30;;
52650;SDS011;38537;47.226;39.702;2023-08-01T12:26:31;4.78;;;3.20;;
52650;SDS011;38537;47.226;39.702;2023-08-01T12:28:59;5.13;;;3.03;;
52650;SDS011;38537;47.226;39.702;2023-08-01T12:31:28;3.30;;;2.90;;
52650;SDS011;38537;47.226;39.702;2023-08-01T12:33:56;4.57;;;2.90;;
52650;SDS011;38537;47.226;39.702;2023-08-01T12:36:23;7.68;;;3.47;;
52650;SDS011;38537;47.226;39.702;2023-08-01T12:38:50;5.30;;;3.30;;
52650;SDS011;38537;47.226;39.702;2023-08-01T12:41:18;5.78;;;3.50;;
52650;SDS011;38537;47.226;39.702;2023-08-01T12:43:45;4.35;;;3.50;;
52650;SDS011;38537;47.226;39.702;2023-08-01T12:46:12;7.18;;;3.50;;
52650;SDS011;38537;47.226;39.702;2023-08-01T12:48:41;5.25;;;3.50;;
52650;SDS011;38537;47.226;39.702;2023-08-01T12:51:08;5.40;;;3.25;;
52650;SDS011;38537;47.226;39.702;2023-08-01T12:53:36;6.63;;;3.40;;
52650;SDS011;38537;47.226;39.702;2023-08-01T12:56:07;5.82;;;3.30;;
52650;SDS011;38537;47.226;39.702;2023-08-01T12:58:34;3.97;;;3.58;;
52650;SDS011;38537;47.226;39.702;2023-08-01T13:01:02;7.82;;;3.55;;
52650;SDS011;38537;47.226;39.702;2023-08-01T13:03:31;8.00;;;3.78;;
52650;SDS011;38537;47.226;39.702;2023-08-01T13:05:58;4.78;;;3.90;;
52650;SDS011;38537;47.226;39.702;2023-08-01T13:08:26;7.30;;;3.50;;
52650;SDS011;38537;47.226;39.702;2023-08-01T13:10:53;4.60;;;3.25;;
52650;SDS011;38537;47.226;39.702;2023-08-01T13:13:22;5.53;;;3.20;;
52650;SDS011;38537;47.226;39.702;2023-08-01T13:15:49;6.57;;;3.05;;
52650;SDS011;38537;47.226;39.702;2023-08-01T13:18:16;6.38;;;3.33;;
52650;SDS011;38537;47.226;39.702;2023-08-01T13:20:44;3.95;;;3.20;;
52650;SDS011;38537;47.226;39.702;2023-08-01T13:23:11;7.25;;;3.00;;
52650;SDS011;38537;47.226;39.702;2023-08-01T13:25:39;5.10;;;3.00;;
52650;SDS011;38537;47.226;39.702;2023-08-01T13:28:07;4.97;;;3.10;;
52650;SDS011;38537;47.226;39.702;2023-08-01T13:30:34;7.93;;;3.50;;
52650;SDS011;38537;47.226;39.702;2023-08-01T13:33:02;5.82;;;3.60;;
52650;SDS011;38537;47.226;39.702;2023-08-01T13:35:29;10.43;;;2.97;;
52650;SDS011;38537;47.226;39.702;2023-08-01T13:37:56;6.88;;;2.85;;
52650;SDS011;38537;47.226;39.702;2023-08-01T13:40:24;3.15;;;2.70;;
52650;SDS011;38537;47.226;39.702;2023-08-01T13:42:52;5.63;;;2.47;;
52650;SDS011;38537;47.226;39.702;2023-08-01T13:45:19;4.63;;;2.58;;
52650;SDS011;38537;47.226;39.702;2023-08-01T13:47:47;5.18;;;2.70;;
52650;SDS011;38537;47.226;39.702;2023-08-01T13:50:15;4.88;;;2.80;;
52650;SDS011;38537;47.226;39.702;2023-08-01T13:52:42;4.88;;;2.78;;
52650;SDS011;38537;47.226;39.702;2023-08-01T13:55:09;10.20;;;2.95;;
52650;SDS011;38537;47.226;39.702;2023-08-01T13:57:37;2.90;;;2.47;;
52650;SDS011;38537;47.226;39.702;2023-08-01T14:00:05;5.82;;;2.72;;
52650;SDS011;38537;47.226;39.702;2023-08-01T14:02:42;5.95;;;2.97;;
52650;SDS011;38537;47.226;39.702;2023-08-01T14:05:10;5.68;;;2.53;;
52650;SDS011;38537;47.226;39.702;2023-08-01T14:07:37;5.97;;;2.67;;
52650;SDS011;38537;47.226;39.702;2023-08-01T14:10:09;7.45;;;2.60;;
52650;SDS011;38537;47.226;39.702;2023-08-01T14:12:37;6.45;;;2.83;;
52650;SDS011;38537;47.226;39.702;2023-08-01T14:15:04;3.65;;;2.53;;
52650;SDS011;38537;47.226;39.702;2023-08-01T14:17:32;10.30;;;3.28;;
52650;SDS011;38537;47.226;39.702;2023-08-01T14:20:00;3.20;;;2.60;;
52650;SDS011;38537;47.226;39.702;2023-08-01T14:22:30;8.70;;;3.00;;
52650;SDS011;38537;47.226;39.702;2023-08-01T14:24:58;7.57;;;3.20;;
52650;SDS011;38537;47.226;39.702;2023-08-01T14:27:25;6.43;;;2.90;;
52650;SDS011;38537;47.226;39.702;2023-08-01T14:29:53;3.85;;;2.65;;
52650;SDS011;38537;47.226;39.702;2023-08-01T14:32:20;8.10;;;3.10;;
52650;SDS011;38537;47.226;39.702;2023-08-01T14:34:48;5.68;;;3.00;;
52650;SDS011;38537;47.226;39.702;2023-08-01T14:37:15;19.55;;;3.83;;
52650;SDS011;38537;47.226;39.702;2023-08-01T14:39:42;8.98;;;3.20;;
52650;SDS011;38537;47.226;39.702;2023-08-01T14:42:10;5.88;;;2.90;;
52650;SDS011;38537;47.226;39.702;2023-08-01T14:44:37;7.20;;;2.60;;